Tasiilaq

KL  EN  DA
ASIAQ
Weather Now GREENLAND SURVEY
Updated [WGT/WGST] Temperature [°C] Wind [m/s] Air pressure [hPa] Relative humidity [%] Precipitation [mm]
Present Wind chill Speed Max
25.02 07:00-11,8-18,84,0 ⇓6,4997610,0
25.02 06:00-11,7-17,22,7 ⇓4,6996590,0
25.02 05:00-11,6-16,82,5 ⇓4,2996600,0
25.02 04:00-11,60,00,3 ⇙3,1995580,0
25.02 03:00-11,3-15,31,8 ⇓4,6995560,0
25.02 02:00-11,10,00,8 ⇐2,6994530,0
25.02 01:00-11,60,01,1 ⇐3,0994510,0
25.02 00:00-12,0-17,42,6 ⇒3,6993470,0
24.02 23:00-11,20,00,7 ⇐2,1993470,0
24.02 22:00-11,40,00,8 ⇗2,2993430,0
24.02 21:00-12,00,00,4 ⇐1,6993440,0
24.02 20:00-12,30,01,2 ⇒3,6992460,0
24.02 19:00-11,7-15,11,5 ⇒4,7992450,0
24.02 18:00-10,9-15,01,9 ⇓3,2992430,0
24.02 17:00-11,50,01,0 ⇓4,2992460,0
24.02 16:00-12,30,01,0 ⇓2,1992480,0
24.02 15:00-12,40,00,7 ⇘2,5992470,0
24.02 14:00-11,90,00,7 ⇓2,5991450,0
24.02 13:00-11,40,00,8 ⇘2,9991440,0
24.02 12:00-11,10,01,0 ⇘2,7991430,0
24.02 11:00-11,20,01,2 ⇘2,4991440,0
24.02 10:00-11,20,01,1 ⇘2,7991440,0
24.02 09:00-11,70,00,8 ⇒2,6992450,0
24.02 08:00-13,6-18,11,9 ⇒3,0992500,0
24.02 07:00-14,8-19,31,8 ⇒3,4992550,0
Position: (65.611111111,-37.63666666)

[Back]